Time;durP1;ratioP1;P1;durP2;ratioP2;P2;SDS_P1;SDS_P2;PMS_P1;PMS_P2;Temp;Humidity;BMP_temperature;BMP_pressure;BME280_temperature;BME280_humidity;BME280_pressure;Samples;Min_cycle;Max_cycle;Signal;HPM_P1;HPM_P2
2021/01/13 00:02:52;;;;;;;8.40;4.85;;;22.50;29.10;;;;;;6105438;28;80563;-64
2021/01/13 00:05:53;;;;;;;8.10;4.63;;;22.50;29.10;;;;;;6096962;28;81470;-64
2021/01/13 00:08:53;;;;;;;8.95;4.78;;;22.50;29.30;;;;;;6105038;28;82135;-64
2021/01/13 00:11:54;;;;;;;6.47;4.25;;;22.50;29.20;;;;;;6096333;28;80790;-64
2021/01/13 00:14:55;;;;;;;6.85;4.30;;;22.50;29.10;;;;;;6105209;28;80817;-64
2021/01/13 00:17:55;;;;;;;6.53;4.30;;;22.50;29.10;;;;;;6094413;28;81673;-64
2021/01/13 00:20:56;;;;;;;8.15;4.72;;;22.50;29.10;;;;;;6104162;28;82197;-64
2021/01/13 00:23:56;;;;;;;7.10;4.90;;;22.50;29.30;;;;;;6095469;28;81668;-63
2021/01/13 00:26:57;;;;;;;8.63;4.75;;;22.50;29.20;;;;;;6105279;28;80464;-63
2021/01/13 00:29:57;;;;;;;7.78;4.45;;;22.50;29.20;;;;;;6105225;28;81597;-63
2021/01/13 00:32:59;;;;;;;8.27;4.80;;;22.50;29.20;;;;;;6104775;28;82942;-63
2021/01/13 00:35:59;;;;;;;8.55;5.05;;;22.50;29.40;;;;;;6105641;28;80616;-63
2021/01/13 00:39:00;;;;;;;8.82;5.13;;;22.50;29.30;;;;;;6099015;28;80499;-63
2021/01/13 00:42:00;;;;;;;6.68;4.28;;;22.40;29.20;;;;;;6100359;28;80894;-64
2021/01/13 00:45:01;;;;;;;8.40;4.47;;;22.40;29.40;;;;;;6105482;28;80915;-64
2021/01/13 00:48:02;;;;;;;7.47;3.90;;;22.40;29.50;;;;;;6105422;28;80816;-64
2021/01/13 00:51:02;;;;;;;6.25;4.07;;;22.40;29.40;;;;;;6095283;28;81679;-64
2021/01/13 00:54:03;;;;;;;7.93;4.25;;;22.40;29.70;;;;;;6104629;28;81112;-64
2021/01/13 00:57:03;;;;;;;9.27;4.55;;;22.40;29.50;;;;;;6102259;28;81046;-64
2021/01/13 01:00:04;;;;;;;7.63;4.60;;;22.40;29.60;;;;;;6104383;28;80675;-64
2021/01/13 01:03:04;;;;;;;9.10;5.35;;;22.40;29.50;;;;;;6095369;28;80693;-64
2021/01/13 01:06:05;;;;;;;8.52;4.70;;;22.40;29.50;;;;;;6092893;28;80679;-64
2021/01/13 01:09:05;;;;;;;8.32;5.22;;;22.40;29.60;;;;;;6094265;28;80787;-65
2021/01/13 01:12:07;;;;;;;6.90;4.22;;;22.40;29.50;;;;;;6102171;28;80807;-65
2021/01/13 01:15:08;;;;;;;7.20;4.47;;;22.40;29.70;;;;;;6103893;28;81310;-65
2021/01/13 01:18:08;;;;;;;6.32;4.07;;;22.40;29.90;;;;;;6103952;28;80936;-65
2021/01/13 01:21:09;;;;;;;6.45;4.22;;;22.30;30.00;;;;;;6103188;28;81344;-64
2021/01/13 01:24:09;;;;;;;6.43;3.80;;;22.40;30.80;;;;;;6102404;28;82307;-65
2021/01/13 01:27:10;;;;;;;6.15;3.95;;;22.30;30.20;;;;;;6104101;28;80573;-65
2021/01/13 01:30:10;;;;;;;5.18;3.60;;;22.30;30.20;;;;;;6102430;28;80847;-64
2021/01/13 01:33:11;;;;;;;8.98;3.58;;;22.30;30.30;;;;;;6103189;28;80185;-66
2021/01/13 01:36:12;;;;;;;8.23;4.13;;;22.30;30.50;;;;;;6103777;28;80476;-65
2021/01/13 01:39:12;;;;;;;6.35;3.60;;;22.30;30.60;;;;;;6104271;28;81690;-64
2021/01/13 01:42:13;;;;;;;7.55;3.00;;;22.30;30.70;;;;;;6102715;28;80604;-65
2021/01/13 01:45:13;;;;;;;5.82;3.53;;;22.30;30.90;;;;;;6101326;28;80690;-64
2021/01/13 01:48:14;;;;;;;5.75;3.20;;;22.30;31.00;;;;;;6103131;28;80640;-64
2021/01/13 01:51:15;;;;;;;5.07;2.72;;;22.30;31.10;;;;;;6103692;28;81282;-64
2021/01/13 01:54:15;;;;;;;4.78;3.15;;;22.30;31.10;;;;;;6102969;28;80023;-65
2021/01/13 01:57:16;;;;;;;8.73;3.20;;;22.30;31.30;;;;;;6098461;28;80381;-65
2021/01/13 02:00:28;;;;;;;6.30;3.42;;;22.30;31.00;;;;;;6101388;28;86066;-65
2021/01/13 02:03:29;;;;;;;5.82;3.50;;;22.30;31.00;;;;;;6103450;28;80955;-64
2021/01/13 02:06:29;;;;;;;5.70;3.28;;;22.30;31.10;;;;;;6102881;28;80717;-65
2021/01/13 02:09:30;;;;;;;6.75;3.35;;;22.30;31.00;;;;;;6091164;28;81301;-64
2021/01/13 02:12:30;;;;;;;5.68;3.03;;;22.30;31.20;;;;;;6100793;28;80311;-65
2021/01/13 02:15:31;;;;;;;5.65;3.25;;;22.30;31.10;;;;;;6102705;28;80363;-65
2021/01/13 02:18:31;;;;;;;4.72;3.13;;;22.30;31.30;;;;;;6101946;28;83344;-65
2021/01/13 02:21:32;;;;;;;7.82;3.42;;;22.30;31.50;;;;;;6103120;28;82537;-65
2021/01/13 02:24:32;;;;;;;6.95;3.67;;;22.30;30.90;;;;;;6101470;28;80712;-64
2021/01/13 02:27:33;;;;;;;6.25;3.20;;;22.30;31.20;;;;;;6095022;28;80932;-63
2021/01/13 02:30:33;;;;;;;4.80;2.85;;;22.20;31.30;;;;;;6099436;28;80790;-63
2021/01/13 02:33:34;;;;;;;5.13;3.03;;;22.30;31.30;;;;;;6093363;28;80857;-64
2021/01/13 02:36:34;;;;;;;7.00;3.15;;;22.30;31.50;;;;;;6100262;28;81782;-64
2021/01/13 02:39:35;;;;;;;5.57;3.05;;;22.20;31.50;;;;;;6100808;28;80847;-64
2021/01/13 02:42:35;;;;;;;5.47;3.15;;;22.20;31.70;;;;;;6101682;28;80385;-64
2021/01/13 02:45:36;;;;;;;5.65;3.67;;;22.20;31.90;;;;;;6076306;28;80343;-65
2021/01/13 02:48:36;;;;;;;5.43;3.50;;;22.20;31.70;;;;;;6091198;28;81197;-64
2021/01/13 02:51:37;;;;;;;6.30;3.45;;;22.20;31.60;;;;;;6083654;28;81242;-63
2021/01/13 02:54:38;;;;;;;4.53;3.15;;;22.20;32.00;;;;;;6099636;28;80899;-63
2021/01/13 02:57:38;;;;;;;5.82;2.95;;;22.20;31.70;;;;;;6095266;28;80675;-63
2021/01/13 03:00:39;;;;;;;4.03;2.80;;;22.20;31.70;;;;;;6088639;28;80690;-63
2021/01/13 03:03:39;;;;;;;5.28;2.83;;;22.20;31.90;;;;;;6101034;28;80270;-62
2021/01/13 03:06:40;;;;;;;4.40;2.75;;;22.20;31.30;;;;;;6095818;28;80649;-63
2021/01/13 03:09:40;;;;;;;5.20;3.00;;;22.20;31.50;;;;;;6091651;28;80784;-64
2021/01/13 03:12:41;;;;;;;7.93;2.83;;;22.20;31.30;;;;;;6098251;28;81587;-65
2021/01/13 03:15:41;;;;;;;4.00;2.20;;;22.20;31.50;;;;;;6105451;28;80980;-65
2021/01/13 03:18:42;;;;;;;5.95;2.50;;;22.20;31.30;;;;;;6094305;28;80446;-65
2021/01/13 03:21:42;;;;;;;7.13;3.22;;;22.20;32.00;;;;;;6097677;28;82531;-64
2021/01/13 03:24:43;;;;;;;6.68;3.00;;;22.20;31.40;;;;;;6099786;28;80828;-65
2021/01/13 03:27:43;;;;;;;4.95;3.03;;;22.20;32.10;;;;;;6099119;28;80497;-65
2021/01/13 03:30:44;;;;;;;5.40;3.17;;;22.20;32.20;;;;;;6107004;28;80958;-65
2021/01/13 03:33:45;;;;;;;6.45;3.10;;;22.20;32.20;;;;;;6103582;28;81614;-65
2021/01/13 03:36:45;;;;;;;4.82;3.15;;;22.20;32.00;;;;;;6105198;28;81091;-65
2021/01/13 03:39:46;;;;;;;3.97;2.70;;;22.20;31.70;;;;;;6102822;28;80667;-64
2021/01/13 03:42:46;;;;;;;5.65;2.53;;;22.20;31.90;;;;;;6106057;28;81569;-65
2021/01/13 03:45:47;;;;;;;5.90;3.20;;;22.20;32.10;;;;;;6106273;28;80950;-65
2021/01/13 03:48:47;;;;;;;3.83;2.40;;;22.20;31.90;;;;;;6104850;28;81558;-64
2021/01/13 03:51:48;;;;;;;4.50;2.95;;;22.20;31.60;;;;;;6090851;28;80748;-64
2021/01/13 03:54:48;;;;;;;6.10;2.75;;;22.20;31.30;;;;;;6104902;28;82545;-64
2021/01/13 03:57:49;;;;;;;5.63;2.95;;;22.20;31.00;;;;;;6099032;28;80414;-64
2021/01/13 04:00:49;;;;;;;6.68;2.95;;;22.20;30.90;;;;;;6106727;28;82079;-64
2021/01/13 04:03:50;;;;;;;5.68;3.00;;;22.20;30.90;;;;;;6094794;28;80305;-64
2021/01/13 04:06:50;;;;;;;4.18;2.88;;;22.20;31.10;;;;;;6102680;28;80972;-64
2021/01/13 04:09:51;;;;;;;4.82;2.70;;;22.20;31.40;;;;;;6091900;28;80418;-63
2021/01/13 04:12:51;;;;;;;6.00;3.38;;;22.20;31.60;;;;;;6104318;28;83381;-64
2021/01/13 04:15:52;;;;;;;4.43;2.83;;;22.20;31.50;;;;;;6105021;28;80980;-64
2021/01/13 04:18:52;;;;;;;5.50;2.72;;;22.20;31.60;;;;;;6104079;28;80545;-64
2021/01/13 04:21:53;;;;;;;5.30;3.20;;;22.30;32.30;;;;;;6098559;28;80469;-65
2021/01/13 04:24:54;;;;;;;6.40;3.70;;;22.30;31.30;;;;;;6106617;28;80833;-65
2021/01/13 04:27:54;;;;;;;6.80;3.88;;;22.40;30.80;;;;;;6099458;28;80944;-64
2021/01/13 04:30:55;;;;;;;8.82;4.20;;;22.40;30.30;;;;;;6099167;28;81302;-64
2021/01/13 04:33:55;;;;;;;5.88;3.65;;;22.50;30.10;;;;;;6104198;28;81492;-63
2021/01/13 04:36:56;;;;;;;8.13;3.95;;;22.50;30.00;;;;;;6096535;28;80474;-63
2021/01/13 04:39:56;;;;;;;8.95;3.78;;;22.50;30.00;;;;;;6099878;28;91204;-63
2021/01/13 04:42:57;;;;;;;12.93;4.22;;;22.60;30.40;;;;;;6097223;28;81672;-63
2021/01/13 04:45:57;;;;;;;6.97;3.67;;;22.70;30.30;;;;;;6094606;28;80787;-63
2021/01/13 04:48:58;;;;;;;6.20;3.60;;;22.70;30.40;;;;;;6100574;28;80637;-62
2021/01/13 04:51:58;;;;;;;8.45;4.20;;;22.70;30.00;;;;;;6096248;28;80583;-62
2021/01/13 04:54:59;;;;;;;7.18;4.28;;;22.70;30.30;;;;;;6095255;28;80536;-62
2021/01/13 04:57:59;;;;;;;5.53;3.45;;;22.70;30.00;;;;;;6103553;28;81231;-63
2021/01/13 05:01:00;;;;;;;9.98;4.70;;;22.70;30.00;;;;;;6093735;28;80454;-62
2021/01/13 05:04:00;;;;;;;7.50;4.05;;;22.70;30.10;;;;;;6100853;28;81642;-62
2021/01/13 05:07:01;;;;;;;7.65;3.80;;;22.70;30.10;;;;;;6094250;28;80830;-63
2021/01/13 05:10:01;;;;;;;7.25;3.90;;;22.80;30.20;;;;;;6104242;28;80505;-62
2021/01/13 05:13:02;;;;;;;8.60;3.95;;;22.80;30.30;;;;;;6103734;28;81585;-62
2021/01/13 05:16:02;;;;;;;6.10;3.60;;;22.80;30.30;;;;;;6101964;28;80390;-61
2021/01/13 05:19:03;;;;;;;7.78;3.67;;;22.80;30.20;;;;;;6090632;28;80361;-62
2021/01/13 05:22:03;;;;;;;5.78;3.58;;;22.80;30.50;;;;;;6094219;28;80802;-63
2021/01/13 05:25:04;;;;;;;6.75;3.83;;;22.80;30.10;;;;;;6094861;28;80624;-67
2021/01/13 05:28:05;;;;;;;7.63;4.15;;;22.90;30.00;;;;;;6103307;28;80859;-64
2021/01/13 05:31:05;;;;;;;10.38;4.07;;;22.90;29.80;;;;;;6099664;28;80495;-64
2021/01/13 05:34:06;;;;;;;7.30;3.42;;;22.90;30.10;;;;;;6110002;28;81064;-65
2021/01/13 05:37:06;;;;;;;5.80;2.67;;;22.90;32.50;;;;;;6098368;28;80851;-64
2021/01/13 05:40:07;;;;;;;6.63;3.13;;;22.90;32.80;;;;;;6101978;28;82454;-65
2021/01/13 05:43:07;;;;;;;5.20;2.72;;;22.90;34.10;;;;;;6103914;28;80305;-64
2021/01/13 05:46:08;;;;;;;4.22;2.50;;;22.90;34.40;;;;;;6104175;28;80914;-64
2021/01/13 05:49:08;;;;;;;4.32;1.98;;;22.90;34.90;;;;;;6100679;28;80765;-64
2021/01/13 05:52:09;;;;;;;3.50;2.15;;;22.90;35.00;;;;;;6103382;28;80831;-64
2021/01/13 05:55:09;;;;;;;3.47;1.95;;;23.00;35.50;;;;;;6104208;28;81057;-64
2021/01/13 05:58:10;;;;;;;3.28;2.00;;;23.00;35.60;;;;;;6091934;28;80361;-64
2021/01/13 06:01:10;;;;;;;3.17;2.13;;;23.00;35.70;;;;;;6096886;28;80449;-64
2021/01/13 06:04:11;;;;;;;4.85;2.25;;;23.00;36.10;;;;;;6102621;28;80912;-64
2021/01/13 06:07:11;;;;;;;4.97;2.10;;;23.00;36.60;;;;;;6099416;28;80653;-64
2021/01/13 06:10:12;;;;;;;4.47;2.28;;;23.00;36.70;;;;;;6092329;28;80708;-66
2021/01/13 06:13:12;;;;;;;3.33;2.03;;;23.00;36.80;;;;;;6093493;28;80812;-65
2021/01/13 06:16:13;;;;;;;4.82;2.17;;;23.10;36.70;;;;;;6101983;28;80806;-64
2021/01/13 06:19:14;;;;;;;4.38;1.85;;;23.00;37.40;;;;;;6104263;28;80652;-66
2021/01/13 06:22:14;;;;;;;2.35;1.63;;;23.10;37.40;;;;;;6098248;28;80688;-65
2021/01/13 06:25:15;;;;;;;3.42;1.70;;;23.10;37.40;;;;;;6094417;28;80559;-64
2021/01/13 06:28:15;;;;;;;2.35;1.75;;;23.00;37.30;;;;;;6099742;28;81121;-67
2021/01/13 06:31:16;;;;;;;3.95;1.90;;;23.10;37.20;;;;;;6099880;28;83669;-63
2021/01/13 06:34:17;;;;;;;2.65;1.38;;;23.10;36.60;;;;;;6101679;28;83526;-65
2021/01/13 06:37:17;;;;;;;3.45;1.85;;;23.10;36.50;;;;;;6100383;28;81048;-65
2021/01/13 06:40:18;;;;;;;2.92;1.73;;;23.10;35.70;;;;;;6095022;28;80983;-66
2021/01/13 06:43:18;;;;;;;2.65;1.55;;;23.10;34.70;;;;;;6087873;28;81254;-65
2021/01/13 06:46:19;;;;;;;3.65;2.15;;;23.00;34.30;;;;;;6099214;28;80517;-64
2021/01/13 06:49:19;;;;;;;5.97;1.70;;;23.00;34.90;;;;;;6100674;28;81594;-66
2021/01/13 06:52:20;;;;;;;4.47;1.90;;;23.00;35.00;;;;;;6097649;28;80521;-65
2021/01/13 06:55:20;;;;;;;3.17;1.67;;;23.00;34.60;;;;;;6100549;28;80533;-64
2021/01/13 06:58:21;;;;;;;3.20;1.48;;;23.00;34.20;;;;;;6099786;28;80643;-65
2021/01/13 07:01:21;;;;;;;3.88;1.55;;;22.90;32.90;;;;;;6089270;28;80862;-63
2021/01/13 07:04:22;;;;;;;6.65;2.00;;;22.90;33.70;;;;;;6092457;28;86756;-64
2021/01/13 07:07:22;;;;;;;4.53;1.60;;;22.90;33.90;;;;;;6100197;28;80820;-65
2021/01/13 07:10:23;;;;;;;4.93;1.73;;;22.80;33.70;;;;;;6103590;28;81558;-65
2021/01/13 07:13:23;;;;;;;4.75;1.80;;;22.80;33.40;;;;;;6102358;28;80554;-64
2021/01/13 07:16:24;;;;;;;3.72;2.08;;;22.80;32.70;;;;;;6094161;28;80862;-64
2021/01/13 07:19:24;;;;;;;3.83;1.55;;;22.80;34.30;;;;;;6093693;28;80839;-64
2021/01/13 07:22:25;;;;;;;3.15;1.70;;;22.80;32.60;;;;;;6095534;28;80048;-64
2021/01/13 07:25:25;;;;;;;3.42;1.83;;;22.80;33.10;;;;;;6087715;28;82326;-65
2021/01/13 07:28:26;;;;;;;2.28;1.60;;;22.70;32.50;;;;;;6090476;28;80296;-64
2021/01/13 07:31:28;;;;;;;3.67;1.75;;;22.70;31.50;;;;;;6093700;28;80891;-63
2021/01/13 07:34:29;;;;;;;6.47;2.30;;;22.70;31.20;;;;;;6091342;28;80920;-64
2021/01/13 07:37:29;;;;;;;5.05;2.22;;;22.70;31.10;;;;;;6101959;28;81174;-64
2021/01/13 07:40:30;;;;;;;6.70;2.00;;;22.70;31.60;;;;;;6101482;28;81108;-63
2021/01/13 07:43:30;;;;;;;3.53;2.15;;;22.60;30.90;;;;;;6100853;28;81048;-63
2021/01/13 07:46:31;;;;;;;6.45;2.08;;;22.60;31.20;;;;;;6096484;28;81506;-63
2021/01/13 07:49:31;;;;;;;5.30;2.33;;;22.60;31.10;;;;;;6089039;28;80669;-63
2021/01/13 07:52:32;;;;;;;9.55;2.10;;;22.60;31.50;;;;;;6090194;28;84316;-64
2021/01/13 07:55:32;;;;;;;13.30;2.00;;;22.60;31.50;;;;;;6089408;28;83886;-65
2021/01/13 07:58:33;;;;;;;8.95;2.33;;;22.60;31.50;;;;;;6095542;28;80721;-63
2021/01/13 08:01:35;;;;;;;7.97;2.40;;;22.60;31.80;;;;;;6098616;28;80152;-63
2021/01/13 08:04:35;;;;;;;7.88;2.95;;;22.60;31.50;;;;;;6105192;28;80667;-63
2021/01/13 08:07:36;;;;;;;10.63;3.15;;;22.50;31.40;;;;;;6104803;28;80882;-63
2021/01/13 08:10:36;;;;;;;6.47;2.63;;;22.50;31.40;;;;;;6098444;28;80439;-64
2021/01/13 08:13:40;;;;;;;12.05;3.42;;;22.50;31.80;;;;;;6095885;28;80402;-63
2021/01/13 08:16:45;;;;;;;6.75;2.50;;;22.50;31.80;;;;;;6102560;28;81258;-63
2021/01/13 08:19:46;;;;;;;9.25;3.03;;;22.60;32.60;;;;;;6099407;28;81150;-63
2021/01/13 08:22:46;;;;;;;7.15;3.08;;;22.60;33.50;;;;;;6103703;28;80663;-63
2021/01/13 08:25:47;;;;;;;6.68;3.63;;;22.70;33.40;;;;;;6103821;28;81815;-63
2021/01/13 08:28:48;;;;;;;13.75;3.17;;;22.70;33.60;;;;;;6101142;28;81281;-64
2021/01/13 08:31:49;;;;;;;8.93;3.47;;;22.70;33.40;;;;;;6104001;28;80844;-63
2021/01/13 08:34:49;;;;;;;11.25;3.15;;;22.70;34.40;;;;;;6102861;28;80419;-63
2021/01/13 08:37:50;;;;;;;7.43;3.35;;;22.70;33.50;;;;;;6103860;28;80590;-63
2021/01/13 08:40:50;;;;;;;7.75;3.60;;;22.70;34.00;;;;;;6094088;28;80756;-64
2021/01/13 08:43:51;;;;;;;12.88;3.78;;;22.70;34.50;;;;;;6092935;28;81243;-63
2021/01/13 08:46:51;;;;;;;9.10;3.58;;;22.70;35.00;;;;;;6092977;28;80778;-65
2021/01/13 08:49:52;;;;;;;6.93;2.92;;;22.70;35.80;;;;;;6093390;28;80840;-66
2021/01/13 08:52:53;;;;;;;7.28;3.15;;;22.70;35.70;;;;;;6099216;28;85116;-64
2021/01/13 08:55:54;;;;;;;9.05;2.88;;;22.80;35.50;;;;;;6094073;28;80537;-65
2021/01/13 08:58:55;;;;;;;6.88;3.42;;;22.70;35.20;;;;;;6090658;28;80624;-64
2021/01/13 09:01:55;;;;;;;7.60;3.60;;;22.80;34.90;;;;;;6097213;28;80157;-64
2021/01/13 09:04:56;;;;;;;6.30;3.45;;;22.80;35.20;;;;;;6102998;28;80575;-63
2021/01/13 09:07:56;;;;;;;6.18;3.03;;;22.80;35.10;;;;;;6102367;28;80609;-64
2021/01/13 09:10:57;;;;;;;10.80;3.67;;;22.80;34.60;;;;;;6094514;28;80658;-65
2021/01/13 09:13:57;;;;;;;7.97;4.03;;;22.70;34.20;;;;;;6102352;28;82014;-64
2021/01/13 09:16:58;;;;;;;7.25;3.63;;;22.70;34.00;;;;;;6090466;28;81401;-62
2021/01/13 09:19:59;;;;;;;8.32;4.20;;;22.70;34.20;;;;;;6102441;28;81228;-64
2021/01/13 09:22:59;;;;;;;8.18;3.85;;;22.70;33.90;;;;;;6104770;28;80726;-64
2021/01/13 09:26:00;;;;;;;9.68;4.40;;;22.70;33.80;;;;;;6101904;28;82007;-64
2021/01/13 09:29:00;;;;;;;8.60;4.10;;;22.70;33.90;;;;;;6098141;28;81431;-64
2021/01/13 09:32:01;;;;;;;7.55;3.80;;;22.70;33.70;;;;;;6099644;28;80965;-64
2021/01/13 09:35:01;;;;;;;12.20;4.20;;;22.70;33.70;;;;;;6098885;28;81403;-64
2021/01/13 09:38:02;;;;;;;11.57;4.32;;;22.70;34.30;;;;;;6099121;28;80707;-64
2021/01/13 09:41:02;;;;;;;10.30;5.03;;;22.70;33.50;;;;;;6101895;28;80807;-64
2021/01/13 09:44:03;;;;;;;9.05;3.88;;;22.70;32.60;;;;;;6089634;28;81056;-64
2021/01/13 09:47:03;;;;;;;7.60;3.97;;;22.70;32.50;;;;;;6076654;28;80488;-63
2021/01/13 09:50:04;;;;;;;10.95;4.20;;;22.70;32.90;;;;;;6097065;28;81172;-64
2021/01/13 09:53:04;;;;;;;10.02;4.43;;;22.70;33.00;;;;;;6100274;28;81439;-63
2021/01/13 09:56:05;;;;;;;10.35;4.18;;;22.90;33.20;;;;;;6088114;28;80906;-63
2021/01/13 09:59:05;;;;;;;10.07;4.30;;;22.90;33.20;;;;;;6098290;28;81438;-62
2021/01/13 10:02:06;;;;;;;10.23;4.80;;;23.00;32.30;;;;;;6090003;28;81485;-63
2021/01/13 10:05:07;;;;;;;9.13;4.10;;;23.00;32.30;;;;;;6097626;28;80849;-64
2021/01/13 10:08:07;;;;;;;12.70;5.55;;;23.00;32.40;;;;;;6092916;28;80550;-63
2021/01/13 10:11:08;;;;;;;11.43;4.53;;;23.00;31.90;;;;;;6100792;28;81983;-63
2021/01/13 10:14:08;;;;;;;9.77;4.20;;;23.00;31.70;;;;;;6098015;28;80522;-63
2021/01/13 10:17:09;;;;;;;9.73;5.15;;;23.00;32.90;;;;;;6102872;28;80994;-63
2021/01/13 10:20:09;;;;;;;12.00;5.53;;;23.00;32.40;;;;;;6098122;28;81351;-63
2021/01/13 10:23:10;;;;;;;10.15;5.18;;;23.00;31.90;;;;;;6099607;28;81889;-63
2021/01/13 10:26:10;;;;;;;11.65;5.00;;;23.00;31.70;;;;;;6091515;28;80936;-63
2021/01/13 10:29:11;;;;;;;11.05;5.13;;;23.00;31.30;;;;;;6095502;28;80896;-63
2021/01/13 10:32:11;;;;;;;11.77;5.43;;;23.00;31.30;;;;;;6094547;28;80610;-63
2021/01/13 10:35:12;;;;;;;13.90;6.07;;;23.00;30.80;;;;;;6102216;28;81237;-63
2021/01/13 10:38:12;;;;;;;17.23;6.07;;;23.10;30.80;;;;;;6097468;28;80399;-63
2021/01/13 10:41:13;;;;;;;12.70;6.10;;;23.10;30.60;;;;;;6098160;28;80981;-63
2021/01/13 10:44:13;;;;;;;13.80;6.53;;;23.10;30.70;;;;;;6104019;28;80828;-63
2021/01/13 10:47:14;;;;;;;12.13;6.13;;;23.20;30.80;;;;;;6094398;28;81085;-63
2021/01/13 10:50:14;;;;;;;14.82;6.72;;;23.20;30.80;;;;;;6098682;28;80753;-63
2021/01/13 10:53:15;;;;;;;11.27;5.93;;;23.20;31.10;;;;;;6097484;28;81071;-63
2021/01/13 10:56:16;;;;;;;14.73;6.70;;;23.30;31.40;;;;;;6069257;28;81267;-63
2021/01/13 10:59:16;;;;;;;15.55;7.60;;;23.30;31.60;;;;;;6102335;28;80561;-64
2021/01/13 11:02:17;;;;;;;13.95;6.32;;;23.30;32.10;;;;;;6097950;28;80746;-63
2021/01/13 11:05:17;;;;;;;13.13;6.32;;;23.30;32.00;;;;;;6091242;28;80813;-64
2021/01/13 11:08:18;;;;;;;14.80;6.60;;;23.20;31.50;;;;;;6075360;28;83474;-64
2021/01/13 11:11:18;;;;;;;14.43;7.15;;;23.30;31.40;;;;;;6102214;28;80989;-64
2021/01/13 11:14:19;;;;;;;16.67;7.45;;;23.30;31.70;;;;;;6101641;28;80792;-64
2021/01/13 11:17:19;;;;;;;13.77;7.03;;;23.30;31.80;;;;;;6098651;28;81303;-64
2021/01/13 11:20:20;;;;;;;13.52;6.45;;;23.30;31.90;;;;;;6069145;28;82732;-64
2021/01/13 11:23:20;;;;;;;14.00;6.82;;;23.20;33.40;;;;;;6100281;28;80719;-64
2021/01/13 11:26:21;;;;;;;18.35;7.43;;;23.20;31.80;;;;;;6092228;28;80329;-64
2021/01/13 11:29:21;;;;;;;13.90;7.22;;;23.20;31.80;;;;;;6090258;28;80797;-64
2021/01/13 11:32:22;;;;;;;16.95;7.40;;;23.20;31.90;;;;;;6100055;28;80966;-64
2021/01/13 11:35:22;;;;;;;14.52;7.45;;;23.20;31.80;;;;;;6104616;28;80771;-62
2021/01/13 11:38:23;;;;;;;14.68;7.18;;;23.20;32.10;;;;;;6105253;28;81157;-63
2021/01/13 11:41:23;;;;;;;19.67;7.90;;;23.20;32.00;;;;;;6102897;28;80898;-63
2021/01/13 11:44:25;;;;;;;21.35;7.50;;;23.10;32.00;;;;;;6077373;28;80802;-63
2021/01/13 11:47:26;;;;;;;16.92;7.07;;;23.10;31.40;;;;;;6098398;28;80459;-64
2021/01/13 11:50:27;;;;;;;15.18;6.93;;;23.10;31.70;;;;;;6095166;28;80551;-62
2021/01/13 11:53:28;;;;;;;14.65;6.78;;;23.00;32.50;;;;;;6105259;28;80567;-64
2021/01/13 11:56:29;;;;;;;15.50;6.53;;;23.00;32.70;;;;;;6076055;28;80347;-63
2021/01/13 11:59:29;;;;;;;13.80;6.18;;;23.00;32.60;;;;;;6104118;28;80696;-62
2021/01/13 12:02:30;;;;;;;12.90;6.30;;;23.00;32.30;;;;;;6095154;28;81043;-63
2021/01/13 12:05:31;;;;;;;14.07;6.97;;;22.90;31.60;;;;;;6118961;28;81556;-62
2021/01/13 12:08:31;;;;;;;12.73;5.97;;;22.90;31.20;;;;;;6105567;28;80773;-62
2021/01/13 12:11:32;;;;;;;14.23;6.47;;;22.90;31.40;;;;;;6103369;28;80624;-63
2021/01/13 12:14:32;;;;;;;12.35;5.68;;;22.90;31.50;;;;;;6095265;28;80776;-63
2021/01/13 12:17:33;;;;;;;13.50;6.55;;;22.90;30.50;;;;;;6102922;28;80892;-63
2021/01/13 12:20:33;;;;;;;11.77;5.28;;;22.90;30.70;;;;;;6105215;28;80333;-62
2021/01/13 12:23:37;;;;;;;11.02;5.43;;;22.90;30.70;;;;;;6094684;28;80847;-63
2021/01/13 12:26:39;;;;;;;11.57;5.65;;;22.90;30.70;;;;;;6100184;28;80980;-64
2021/01/13 12:29:39;;;;;;;14.05;6.47;;;22.80;30.50;;;;;;6098585;28;80903;-63
2021/01/13 12:32:40;;;;;;;13.60;5.95;;;22.80;30.30;;;;;;6101673;28;80907;-63
2021/01/13 12:35:40;;;;;;;11.55;5.35;;;22.80;30.20;;;;;;6099093;28;81337;-63
2021/01/13 12:38:43;;;;;;;11.15;5.80;;;22.80;30.20;;;;;;6103773;28;81572;-64
2021/01/13 12:41:44;;;;;;;11.38;6.30;;;22.80;30.10;;;;;;6096843;28;81199;-63
2021/01/13 12:44:44;;;;;;;13.48;6.43;;;22.80;30.60;;;;;;6088663;28;83309;-63
2021/01/13 12:47:45;;;;;;;11.63;5.60;;;22.70;30.30;;;;;;6092040;28;82407;-63
2021/01/13 12:50:45;;;;;;;14.52;6.32;;;22.70;30.40;;;;;;6091811;28;80841;-63
2021/01/13 12:53:46;;;;;;;12.45;5.53;;;22.70;30.40;;;;;;6090900;28;80558;-63
2021/01/13 12:56:46;;;;;;;14.45;5.88;;;22.70;30.30;;;;;;6103573;28;81408;-63
2021/01/13 12:59:47;;;;;;;12.82;6.00;;;22.70;30.40;;;;;;6105442;28;80395;-63
2021/01/13 13:02:48;;;;;;;10.38;5.13;;;22.70;30.50;;;;;;6094547;28;80471;-63
2021/01/13 13:05:48;;;;;;;12.02;5.75;;;22.70;30.40;;;;;;6102703;28;80659;-62
2021/01/13 13:08:50;;;;;;;11.85;5.35;;;22.60;30.90;;;;;;6103588;28;80926;-62
2021/01/13 13:11:51;;;;;;;12.07;6.00;;;22.70;30.70;;;;;;6089644;28;81760;-63
2021/01/13 13:14:51;;;;;;;12.25;5.72;;;22.70;30.40;;;;;;6100469;28;80668;-62
2021/01/13 13:17:52;;;;;;;9.20;5.13;;;22.70;30.80;;;;;;6096075;28;81629;-62
2021/01/13 13:20:52;;;;;;;10.15;5.47;;;22.70;31.00;;;;;;6102286;28;80954;-63
2021/01/13 13:23:53;;;;;;;13.93;6.10;;;22.60;30.90;;;;;;6103819;28;80988;-62
2021/01/13 13:26:53;;;;;;;12.63;6.15;;;22.60;30.60;;;;;;6102392;28;80794;-62
2021/01/13 13:29:54;;;;;;;11.38;5.47;;;22.60;30.40;;;;;;6092007;28;81075;-62
2021/01/13 13:32:54;;;;;;;11.27;6.05;;;22.60;30.40;;;;;;6100630;28;81953;-62
2021/01/13 13:35:55;;;;;;;8.98;5.82;;;22.60;30.20;;;;;;6089514;28;80441;-63
2021/01/13 13:38:55;;;;;;;11.75;5.57;;;22.60;30.10;;;;;;6103702;28;83021;-63
2021/01/13 13:41:56;;;;;;;10.65;5.55;;;22.60;30.20;;;;;;6101708;28;80438;-62
2021/01/13 13:44:57;;;;;;;11.57;5.43;;;22.60;30.20;;;;;;6084676;28;81146;-62
2021/01/13 13:47:57;;;;;;;9.95;5.32;;;22.70;30.10;;;;;;6098484;28;83319;-62
2021/01/13 13:50:58;;;;;;;12.20;6.35;;;22.70;30.00;;;;;;6100620;28;81177;-62
2021/01/13 13:53:58;;;;;;;11.20;5.50;;;22.80;29.80;;;;;;6103361;28;81004;-63
2021/01/13 13:56:59;;;;;;;13.20;5.50;;;22.80;30.00;;;;;;6097636;28;80663;-62
2021/01/13 13:59:59;;;;;;;10.27;5.20;;;22.80;30.00;;;;;;6091197;28;80968;-63
2021/01/13 14:03:00;;;;;;;12.57;5.22;;;22.90;30.00;;;;;;6100899;28;80989;-63
2021/01/13 14:06:00;;;;;;;9.68;5.35;;;22.90;30.30;;;;;;6077560;28;80991;-63
2021/01/13 14:09:01;;;;;;;10.27;5.15;;;22.90;30.30;;;;;;6102540;28;80955;-63
2021/01/13 14:12:03;;;;;;;8.35;4.47;;;22.90;30.00;;;;;;6097954;28;80779;-63
2021/01/13 14:15:03;;;;;;;10.10;5.28;;;22.90;30.50;;;;;;6100855;28;80332;-64
2021/01/13 14:18:04;;;;;;;12.02;5.72;;;22.90;30.30;;;;;;6090187;28;80783;-63
2021/01/13 14:21:04;;;;;;;9.35;5.70;;;23.00;30.00;;;;;;6100024;28;82593;-63
2021/01/13 14:24:05;;;;;;;9.95;5.15;;;22.90;29.90;;;;;;6084369;28;80401;-64
2021/01/13 14:27:06;;;;;;;11.63;5.95;;;23.00;29.90;;;;;;6096401;28;80721;-64
2021/01/13 14:30:06;;;;;;;10.07;5.18;;;22.90;29.90;;;;;;6096098;28;80810;-63
2021/01/13 14:33:07;;;;;;;10.98;5.63;;;23.00;29.90;;;;;;6098323;28;81125;-63
2021/01/13 14:36:07;;;;;;;14.48;6.55;;;23.00;30.20;;;;;;6098626;28;80388;-63
2021/01/13 14:39:08;;;;;;;12.68;6.07;;;23.00;29.70;;;;;;6085286;28;81409;-63
2021/01/13 14:42:08;;;;;;;13.57;5.95;;;23.00;29.90;;;;;;6094836;28;81369;-64
2021/01/13 14:45:09;;;;;;;11.95;5.85;;;22.90;30.00;;;;;;6102435;28;83144;-64
2021/01/13 14:48:09;;;;;;;12.30;6.03;;;22.90;29.40;;;;;;6102928;28;83073;-67
2021/01/13 14:51:10;;;;;;;11.57;6.45;;;23.00;30.00;;;;;;6077565;28;81589;-66
2021/01/13 14:54:11;;;;;;;11.18;6.05;;;22.90;29.90;;;;;;6100144;28;81157;-66
2021/01/13 14:57:11;;;;;;;12.98;6.88;;;22.90;29.70;;;;;;6099170;28;80463;-65
2021/01/13 15:00:12;;;;;;;13.05;6.80;;;23.00;29.70;;;;;;6099238;28;80757;-65
2021/01/13 15:03:12;;;;;;;14.10;6.78;;;22.90;29.70;;;;;;6100817;28;81472;-64
2021/01/13 15:06:12;;;;;;;15.25;6.53;;;23.00;30.00;;;;;;6100805;28;82514;-65
2021/01/13 15:09:13;;;;;;;13.23;6.70;;;23.00;30.00;;;;;;6093721;28;82006;-66
2021/01/13 15:12:14;;;;;;;12.27;6.30;;;23.00;30.30;;;;;;6107423;28;80773;-65
2021/01/13 15:15:15;;;;;;;10.45;5.78;;;23.00;30.40;;;;;;6105976;28;81292;-66
2021/01/13 15:18:15;;;;;;;11.65;6.03;;;23.00;30.30;;;;;;6100544;28;81181;-65
2021/01/13 15:21:16;;;;;;;14.65;6.80;;;22.90;30.20;;;;;;6091421;28;80643;-65
2021/01/13 15:24:16;;;;;;;11.73;6.82;;;23.00;30.00;;;;;;6102701;28;80896;-66
2021/01/13 15:27:18;;;;;;;10.45;6.07;;;23.00;30.10;;;;;;6096320;28;80298;-65
2021/01/13 15:30:19;;;;;;;11.95;6.38;;;23.00;30.20;;;;;;6096881;28;80717;-66
2021/01/13 15:33:19;;;;;;;12.05;6.30;;;23.10;30.20;;;;;;6104725;28;80991;-67
2021/01/13 15:36:20;;;;;;;13.55;6.60;;;23.10;30.50;;;;;;6097522;28;81530;-64